Flight Track Log - Related Links

Times and Time Zones

All times are in EDT time to prevent confusion due to time zone crossing. See the SWA3294 flight status page for this flight to view local times or setup timezone preferences in your user account.

Time Position Orientation Groundspeed Altitude Reporting Facility
EDT Latitude Longitude Course Direction KTS km/h feet Rate Location/Type
Sat 11:18:15 41.3981 -81.8731 252° West 136 253 1.800  Level Cleveland Center
Sat 11:18:57 41.3894 -81.9089 252° West 162 299 3.000 1.966 Climbing Cleveland Center
Sat 11:20:11 41.3739 -81.9917 256° West 213 394 5.600 3.000 Climbing Cleveland Center
Sat 11:21:11 41.3622 -82.0769 260° West 246 455 9.700 3.050 Climbing Cleveland Center
Sat 11:22:11 41.3550 -82.1628 264° West 246 455 11.700 2.750 Climbing Cleveland Center
Sat 11:23:11 41.3617 -82.2792 274° West 290 538 15.200 3.450 Climbing Cleveland Center
Sat 11:24:11 41.3681 -82.3953 274° West 315 583 18.600 3.250 Climbing Cleveland Center
Sat 11:25:11 41.3744 -82.5147 274° West 321 594 21.700 2.950 Climbing Cleveland Center
Sat 11:26:11 41.3808 -82.6339 274° West 327 605 24.500 2.400 Climbing Cleveland Center
Sat 11:27:11 41.3867 -82.7639 273° West 341 631 26.500 2.450 Climbing Cleveland Center
Sat 11:28:11 41.3944 -82.9000 274° West 346 641 29.400 1.750 Climbing Cleveland Center
Sat 11:29:11 41.4022 -83.0275 275° West 351 650 30.000 300 Climbing Cleveland Center
Sat 11:30:11 41.4100 -83.1553 275° West 351 650 30.000  Level Cleveland Center
Sat 11:31:11 41.4131 -83.2828 272° West 346 641 30.000  Level Cleveland Center
Sat 11:32:11 41.4228 -83.4078 276° West 346 641 30.000  Level Cleveland Center
Sat 11:33:11 41.4278 -83.5381 273° West 351 650 30.000  Level Cleveland Center
Sat 11:34:11 41.4347 -83.6714 274° West 351 650 30.000  Level Cleveland Center
Sat 11:35:11 41.4394 -83.8019 273° West 351 650 30.000  Level Cleveland Center
Sat 11:36:11 41.4461 -83.9325 274° West 351 650 30.000  Level Cleveland Center
Sat 11:38:18 41.4614 -84.2056 274° West 361 668 30.000  Level Chicago Center
Sat 11:39:20 41.4686 -84.3394 274° West 363 673 30.000  Level Chicago Center
Sat 11:40:21 41.4722 -84.4758 272° West 368 681 30.000  Level Chicago Center
Sat 11:41:23 41.4778 -84.6125 273° West 370 686 30.000  Level Chicago Center
Sat 11:42:24 41.4833 -84.7500 273° West 371 687 30.000  Level Chicago Center
Sat 11:43:26 41.4881 -84.8856 273° West 367 679 30.000  Level Chicago Center
Sat 11:44:28 41.4947 -85.0481 273° West 366 678 30.000 -585 Level Chicago Center
Sat 11:45:29 41.4992 -85.1758 273° West 348 644 28.800 -1.561 Descending Chicago Center
Sat 11:46:31 41.5031 -85.2967 273° West 327 605 26.800 -1.790 Descending Chicago Center
Sat 11:47:33 41.5075 -85.4133 273° West 314 581 25.100 -1.317 Descending Chicago Center
Sat 11:48:34 41.5097 -85.5258 272° West 300 555 24.100 -976 Descending Chicago Center
Sat 11:49:36 41.5136 -85.6353 273° West 294 544 23.100 -1.210 Descending Chicago Center
Sat 11:50:38 41.5167 -85.7400 272° West 284 526 21.600 -1.561 Descending Chicago Center
Sat 11:51:39 41.5194 -85.8389 272° West 269 499 19.900 -1.610 Descending Chicago Center
Sat 11:52:41 41.5222 -85.9350 272° West 263 488 18.300 -1.548 Descending Chicago Center
Sat 11:53:43 41.5253 -86.0322 272° West 263 488 16.700 -1.610 Descending Chicago Center
Sat 11:54:44 41.5239 -86.1311 269° West 266 492 15.000 -1.659 Descending Chicago Center
Sat 11:55:46 41.5239 -86.2444 270° West 257 476 13.300 -1.561 Descending Chicago Center
Sat 11:56:47 41.5228 -86.3378 269° West 254 470 11.800 -1.122 Descending Chicago Center
Sat 11:57:49 41.5228 -86.4286 270° West 248 459 11.000 -484 Descending Chicago Center
Sat 11:58:51 41.5211 -86.5167 269° West 240 444 10.800 -488 Descending Chicago Center
Sat 11:59:52 41.5214 -86.6047 270° West 239 443 10.000 -390 Descending Chicago Center
Sat 12:00:54 41.5208 -86.6947 270° West 242 447 10.000 -387 Level Chicago Center
Sat 12:01:56 41.5197 -86.8006 269° West 242 447 9.200 -976 Descending Chicago Center
Sat 12:02:57 41.5192 -86.8867 270° West 235 435 8.000 -1.512 Descending Chicago Center
Sat 12:03:59 41.5181 -86.9719 269° West 231 428 6.100 -1.756 Descending Chicago Center
Sat 12:05:00 41.5175 -87.0636 270° West 242 447 4.400 -1.156 Descending Chicago Center
Sat 12:05:48 41.5333 -87.1333 287° West 232 430 4.000 -235 Descending Chicago TRACON
Sat 12:06:42 41.5500 -87.2000 288° West 233 431 4.000  Level Chicago TRACON
Sat 12:07:42 41.5833 -87.2833 298° West 229 425 4.000  Level Chicago TRACON
Sat 12:08:36 41.6000 -87.3667 285° West 230 426 4.000  Level Chicago TRACON
Sat 12:09:07 41.6114 -87.3978 296° West 230 426 4.000  Level Chicago Center
Sat 12:10:09 41.6339 -87.4772 291° West 230 426 4.000  Level Chicago Center
Sat 12:11:10 41.6547 -87.5522 290° West 226 418 4.000 -195 Level Chicago Center
Sat 12:12:12 41.6819 -87.6064 304° West 204 378 3.600 -683 Descending Chicago Center
Sat 12:13:13 41.7147 -87.6550 312° West 188 348 2.600 -878 Descending Chicago Center
Sat 12:14:15 41.7442 -87.6956 314° West 171 317 1.800 -780 Descending Chicago Center
Sat 12:15:16 41.7681 -87.7286 314° West 148 274 1.000 -787 Descending Chicago Center
Sat 12:17:00 41.7833 -87.7500 334° Northwest  Level FlightAware Approximate

Login

Don't have an account? Register now (free) for customized features, flight alerts, and more!